sensor_id;sensor_type;location;lat;lon;timestamp;pressure;altitude;pressure_sealevel;temperature;humidity
29315;BME280;16320;53.954;9.506;2023-04-08T00:02:54;102136.34;;;6.45;100.00
29315;BME280;16320;53.954;9.506;2023-04-08T00:05:59;102136.34;;;6.45;100.00
29315;BME280;16320;53.954;9.506;2023-04-08T00:09:05;102137.25;;;6.45;100.00
29315;BME280;16320;53.954;9.506;2023-04-08T00:12:09;102135.47;;;6.49;100.00
29315;BME280;16320;53.954;9.506;2023-04-08T00:15:14;102136.31;;;6.48;100.00
29315;BME280;16320;53.954;9.506;2023-04-08T00:18:19;102139.78;;;6.48;100.00
29315;BME280;16320;53.954;9.506;2023-04-08T00:21:24;102141.50;;;6.51;100.00
29315;BME280;16320;53.954;9.506;2023-04-08T00:24:27;102140.66;;;6.50;100.00
29315;BME280;16320;53.954;9.506;2023-04-08T00:27:32;102132.81;;;6.52;100.00
29315;BME280;16320;53.954;9.506;2023-04-08T00:30:37;102132.81;;;6.52;100.00
29315;BME280;16320;53.954;9.506;2023-04-08T00:33:41;102136.28;;;6.51;100.00
29315;BME280;16320;53.954;9.506;2023-04-08T00:36:46;102132.81;;;6.52;100.00
29315;BME280;16320;53.954;9.506;2023-04-08T00:39:50;102131.06;;;6.51;100.00
29315;BME280;16320;53.954;9.506;2023-04-08T00:42:56;102134.53;;;6.51;100.00
29315;BME280;16320;53.954;9.506;2023-04-08T00:46:02;102133.63;;;6.55;100.00
29315;BME280;16320;53.954;9.506;2023-04-08T00:49:07;102129.31;;;6.53;100.00
29315;BME280;16320;53.954;9.506;2023-04-08T00:52:11;102131.03;;;6.54;100.00
29315;BME280;16320;53.954;9.506;2023-04-08T00:55:16;102132.75;;;6.56;100.00
29315;BME280;16320;53.954;9.506;2023-04-08T00:58:20;102131.84;;;6.59;100.00
29315;BME280;16320;53.954;9.506;2023-04-08T01:02:25;102128.38;;;6.58;100.00
29315;BME280;16320;53.954;9.506;2023-04-08T01:08:45;102124.97;;;6.53;100.00
29315;BME280;16320;53.954;9.506;2023-04-08T01:11:52;102128.47;;;6.51;100.00
29315;BME280;16320;53.954;9.506;2023-04-08T01:15:04;102118.88;;;6.51;100.00
29315;BME280;16320;53.954;9.506;2023-04-08T01:18:13;102129.31;;;6.53;100.00
29315;BME280;16320;53.954;9.506;2023-04-08T01:21:20;102126.72;;;6.50;100.00
29315;BME280;16320;53.954;9.506;2023-04-08T01:24:32;102142.34;;;6.53;100.00
29315;BME280;16320;53.954;9.506;2023-04-08T01:27:37;102131.03;;;6.54;100.00
29315;BME280;16320;53.954;9.506;2023-04-08T01:30:43;102145.84;;;6.53;100.00
29315;BME280;16320;53.954;9.506;2023-04-08T01:33:51;102143.22;;;6.55;100.00
29315;BME280;16320;53.954;9.506;2023-04-08T01:36:56;102144.91;;;6.57;100.00
29315;BME280;16320;53.954;9.506;2023-04-08T01:40:02;102147.53;;;6.56;100.00
29315;BME280;16320;53.954;9.506;2023-04-08T01:43:10;102155.34;;;6.59;100.00
29315;BME280;16320;53.954;9.506;2023-04-08T01:46:16;102161.38;;;6.63;100.00
29315;BME280;16320;53.954;9.506;2023-04-08T01:49:21;102163.13;;;6.64;100.00
29315;BME280;16320;53.954;9.506;2023-04-08T01:52:28;102159.66;;;6.63;100.00
29315;BME280;16320;53.954;9.506;2023-04-08T01:55:34;102168.31;;;6.67;100.00
29315;BME280;16320;53.954;9.506;2023-04-08T01:58:45;102165.78;;;6.59;100.00
29315;BME280;16320;53.954;9.506;2023-04-08T02:01:51;102153.66;;;6.56;100.00
29315;BME280;16320;53.954;9.506;2023-04-08T02:04:57;102161.47;;;6.58;100.00
29315;BME280;16320;53.954;9.506;2023-04-08T02:08:02;102153.72;;;6.49;100.00
29315;BME280;16320;53.954;9.506;2023-04-08T02:11:06;102155.41;;;6.53;100.00
29315;BME280;16320;53.954;9.506;2023-04-08T02:14:10;102155.38;;;6.56;100.00
29315;BME280;16320;53.954;9.506;2023-04-08T02:17:26;102150.19;;;6.53;100.00
29315;BME280;16320;53.954;9.506;2023-04-08T02:20:43;102149.25;;;6.58;100.00
29315;BME280;16320;53.954;9.506;2023-04-08T02:23:50;102150.16;;;6.56;100.00
29315;BME280;16320;53.954;9.506;2023-04-08T02:26:56;102144.06;;;6.57;100.00
29315;BME280;16320;53.954;9.506;2023-04-08T02:30:04;102141.44;;;6.57;100.00
29315;BME280;16320;53.954;9.506;2023-04-08T02:33:10;102144.97;;;6.53;100.00
29315;BME280;16320;53.954;9.506;2023-04-08T02:36:15;102145.88;;;6.50;100.00
29315;BME280;16320;53.954;9.506;2023-04-08T02:39:19;102144.97;;;6.53;100.00
29315;BME280;16320;53.954;9.506;2023-04-08T02:42:24;102134.53;;;6.53;100.00
29315;BME280;16320;53.954;9.506;2023-04-08T02:45:39;102128.41;;;6.55;100.00
29315;BME280;16320;53.954;9.506;2023-04-08T02:48:44;102137.13;;;6.54;100.00
29315;BME280;16320;53.954;9.506;2023-04-08T02:51:49;102130.19;;;6.52;100.00
29315;BME280;16320;53.954;9.506;2023-04-08T02:54:53;102136.25;;;6.54;100.00
29315;BME280;16320;53.954;9.506;2023-04-08T02:57:58;102139.69;;;6.57;100.00
29315;BME280;16320;53.954;9.506;2023-04-08T03:01:02;102133.63;;;6.57;100.00
29315;BME280;16320;53.954;9.506;2023-04-08T03:04:06;102136.22;;;6.57;100.00
29315;BME280;16320;53.954;9.506;2023-04-08T03:07:11;102133.63;;;6.55;100.00
29315;BME280;16320;53.954;9.506;2023-04-08T03:10:15;102140.63;;;6.55;100.00
29315;BME280;16320;53.954;9.506;2023-04-08T03:13:20;102144.94;;;6.56;100.00
29315;BME280;16320;53.954;9.506;2023-04-08T03:16:24;102143.25;;;6.52;100.00
29315;BME280;16320;53.954;9.506;2023-04-08T03:19:29;102142.34;;;6.53;100.00
29315;BME280;16320;53.954;9.506;2023-04-08T03:22:35;102146.75;;;6.51;100.00
29315;BME280;16320;53.954;9.506;2023-04-08T03:25:39;102148.47;;;6.52;100.00
29315;BME280;16320;53.954;9.506;2023-04-08T03:28:44;102150.19;;;6.53;100.00
29315;BME280;16320;53.954;9.506;2023-04-08T03:31:48;102147.56;;;6.53;100.00
29315;BME280;16320;53.954;9.506;2023-04-08T03:34:53;102145.94;;;6.46;100.00
29315;BME280;16320;53.954;9.506;2023-04-08T03:37:57;102146.75;;;6.51;100.00
29315;BME280;16320;53.954;9.506;2023-04-08T03:41:01;102145.00;;;6.50;100.00
29315;BME280;16320;53.954;9.506;2023-04-08T03:44:06;102145.91;;;6.49;100.00
29315;BME280;16320;53.954;9.506;2023-04-08T03:47:10;102141.50;;;6.51;100.00
29315;BME280;16320;53.954;9.506;2023-04-08T03:50:14;102139.75;;;6.53;100.00
29315;BME280;16320;53.954;9.506;2023-04-08T03:53:19;102141.50;;;6.51;100.00
29315;BME280;16320;53.954;9.506;2023-04-08T03:56:23;102148.47;;;6.52;100.00
29315;BME280;16320;53.954;9.506;2023-04-08T03:59:28;102152.78;;;6.54;100.00
29315;BME280;16320;53.954;9.506;2023-04-08T04:02:33;102151.94;;;6.54;100.00
29315;BME280;16320;53.954;9.506;2023-04-08T04:05:39;102160.66;;;6.51;100.00
29315;BME280;16320;53.954;9.506;2023-04-08T04:08:44;102162.41;;;6.51;100.00
29315;BME280;16320;53.954;9.506;2023-04-08T04:11:48;102162.38;;;6.54;100.00
29315;BME280;16320;53.954;9.506;2023-04-08T04:14:52;102168.41;;;6.59;100.00
29315;BME280;16320;53.954;9.506;2023-04-08T04:17:56;102162.34;;;6.57;100.00
29315;BME280;16320;53.954;9.506;2023-04-08T04:21:05;102168.41;;;6.57;100.00
29315;BME280;16320;53.954;9.506;2023-04-08T04:24:10;102172.78;;;6.57;100.00
29315;BME280;16320;53.954;9.506;2023-04-08T04:27:15;102172.81;;;6.54;100.00
29315;BME280;16320;53.954;9.506;2023-04-08T04:30:20;102189.28;;;6.59;100.00
29315;BME280;16320;53.954;9.506;2023-04-08T04:33:25;102187.53;;;6.59;100.00
29315;BME280;16320;53.954;9.506;2023-04-08T04:36:29;102187.59;;;6.55;100.00
29315;BME280;16320;53.954;9.506;2023-04-08T04:39:34;102189.31;;;6.56;100.00
29315;BME280;16320;53.954;9.506;2023-04-08T04:42:38;102198.91;;;6.54;100.00
29315;BME280;16320;53.954;9.506;2023-04-08T04:45:43;102201.50;;;6.57;100.00
29315;BME280;16320;53.954;9.506;2023-04-08T04:48:48;102202.34;;;6.59;100.00
29315;BME280;16320;53.954;9.506;2023-04-08T04:51:53;102206.78;;;6.51;100.00
29315;BME280;16320;53.954;9.506;2023-04-08T04:54:58;102210.22;;;6.54;100.00
29315;BME280;16320;53.954;9.506;2023-04-08T04:58:02;102218.09;;;6.50;100.00
29315;BME280;16320;53.954;9.506;2023-04-08T05:01:06;102230.25;;;6.54;100.00
29315;BME280;16320;53.954;9.506;2023-04-08T05:04:11;102226.78;;;6.52;100.00
29315;BME280;16320;53.954;9.506;2023-04-08T05:07:15;102234.66;;;6.47;100.00
29315;BME280;16320;53.954;9.506;2023-04-08T05:10:19;102235.56;;;6.45;100.00
29315;BME280;16320;53.954;9.506;2023-04-08T05:13:24;102247.75;;;6.44;100.00
29315;BME280;16320;53.954;9.506;2023-04-08T05:16:28;102242.50;;;6.46;100.00
29315;BME280;16320;53.954;9.506;2023-04-08T05:19:33;102239.94;;;6.43;100.00
29315;BME280;16320;53.954;9.506;2023-04-08T05:22:37;102236.53;;;6.36;100.00
29315;BME280;16320;53.954;9.506;2023-04-08T05:25:41;102239.16;;;6.31;100.00
29315;BME280;16320;53.954;9.506;2023-04-08T05:28:47;102239.19;;;6.30;100.00
29315;BME280;16320;53.954;9.506;2023-04-08T05:31:51;102235.69;;;6.32;100.00
29315;BME280;16320;53.954;9.506;2023-04-08T05:34:56;102235.66;;;6.35;100.00
29315;BME280;16320;53.954;9.506;2023-04-08T05:38:01;102249.59;;;6.34;100.00
29315;BME280;16320;53.954;9.506;2023-04-08T05:41:05;102253.09;;;6.30;100.00
29315;BME280;16320;53.954;9.506;2023-04-08T05:44:10;102248.75;;;6.31;100.00
29315;BME280;16320;53.954;9.506;2023-04-08T05:47:15;102253.16;;;6.27;100.00
29315;BME280;16320;53.954;9.506;2023-04-08T05:50:19;102259.22;;;6.26;100.00
29315;BME280;16320;53.954;9.506;2023-04-08T05:53:24;102265.34;;;6.22;100.00
29315;BME280;16320;53.954;9.506;2023-04-08T05:56:29;102266.22;;;6.22;100.00
29315;BME280;16320;53.954;9.506;2023-04-08T05:59:35;102275.78;;;6.20;100.00
29315;BME280;16320;53.954;9.506;2023-04-08T06:02:39;102274.91;;;6.21;100.00
29315;BME280;16320;53.954;9.506;2023-04-08T06:05:44;102280.22;;;6.11;100.00
29315;BME280;16320;53.954;9.506;2023-04-08T06:08:48;102289.78;;;6.12;100.00
29315;BME280;16320;53.954;9.506;2023-04-08T06:11:53;102281.13;;;6.10;100.00
29315;BME280;16320;53.954;9.506;2023-04-08T06:14:57;102283.72;;;6.10;100.00
29315;BME280;16320;53.954;9.506;2023-04-08T06:18:01;102291.56;;;6.10;100.00
29315;BME280;16320;53.954;9.506;2023-04-08T06:21:06;102292.44;;;6.07;100.00
29315;BME280;16320;53.954;9.506;2023-04-08T06:24:10;102288.00;;;6.17;100.00
29315;BME280;16320;53.954;9.506;2023-04-08T06:27:14;102303.69;;;6.14;100.00
29315;BME280;16320;53.954;9.506;2023-04-08T06:30:19;102301.88;;;6.19;100.00
29315;BME280;16320;53.954;9.506;2023-04-08T06:33:25;102295.78;;;6.23;100.00
29315;BME280;16320;53.954;9.506;2023-04-08T06:36:29;102294.06;;;6.19;100.00
29315;BME280;16320;53.954;9.506;2023-04-08T06:39:34;102296.63;;;6.25;100.00
29315;BME280;16320;53.954;9.506;2023-04-08T06:42:38;102315.78;;;6.27;100.00
29315;BME280;16320;53.954;9.506;2023-04-08T06:45:46;102314.88;;;6.30;100.00
29315;BME280;16320;53.954;9.506;2023-04-08T06:48:50;102327.88;;;6.34;100.00
29315;BME280;16320;53.954;9.506;2023-04-08T06:51:55;102320.88;;;6.36;100.00
29315;BME280;16320;53.954;9.506;2023-04-08T06:54:59;102327.91;;;6.31;100.00
29315;BME280;16320;53.954;9.506;2023-04-08T06:58:06;102322.69;;;6.28;100.00
29315;BME280;16320;53.954;9.506;2023-04-08T07:01:15;102326.16;;;6.30;100.00
29315;BME280;16320;53.954;9.506;2023-04-08T07:04:20;102321.78;;;6.35;100.00
29315;BME280;16320;53.954;9.506;2023-04-08T07:07:25;102327.81;;;6.44;100.00
29315;BME280;16320;53.954;9.506;2023-04-08T07:10:29;102336.44;;;6.52;100.00
29315;BME280;16320;53.954;9.506;2023-04-08T07:13:33;102328.50;;;6.59;100.00
29315;BME280;16320;53.954;9.506;2023-04-08T07:16:38;102329.28;;;6.69;100.00
29315;BME280;16320;53.954;9.506;2023-04-08T07:19:42;102335.34;;;6.76;100.00
29315;BME280;16320;53.954;9.506;2023-04-08T07:22:47;102320.53;;;6.76;100.00
29315;BME280;16320;53.954;9.506;2023-04-08T07:25:51;102316.19;;;6.72;100.00
29315;BME280;16320;53.954;9.506;2023-04-08T07:28:57;102325.81;;;6.70;100.00
29315;BME280;16320;53.954;9.506;2023-04-08T07:32:01;102326.69;;;6.69;100.00
29315;BME280;16320;53.954;9.506;2023-04-08T07:35:06;102329.25;;;6.72;100.00
29315;BME280;16320;53.954;9.506;2023-04-08T07:38:10;102327.53;;;6.74;100.00
29315;BME280;16320;53.954;9.506;2023-04-08T07:41:16;102330.09;;;6.77;100.00
29315;BME280;16320;53.954;9.506;2023-04-08T07:44:21;102342.25;;;6.78;100.00
29315;BME280;16320;53.954;9.506;2023-04-08T07:47:25;102337.88;;;6.81;100.00
29315;BME280;16320;53.954;9.506;2023-04-08T07:50:29;102344.75;;;6.91;100.00
29315;BME280;16320;53.954;9.506;2023-04-08T07:53:34;102347.31;;;6.97;100.00
29315;BME280;16320;53.954;9.506;2023-04-08T07:56:39;102349.88;;;7.00;100.00
29315;BME280;16320;53.954;9.506;2023-04-08T07:59:44;102350.75;;;7.01;100.00
29315;BME280;16320;53.954;9.506;2023-04-08T08:02:50;102353.34;;;7.02;100.00
29315;BME280;16320;53.954;9.506;2023-04-08T08:05:55;102350.63;;;7.11;100.00
29315;BME280;16320;53.954;9.506;2023-04-08T08:09:00;102358.38;;;7.21;100.00
29315;BME280;16320;53.954;9.506;2023-04-08T08:12:05;102356.53;;;7.29;100.00
29315;BME280;16320;53.954;9.506;2023-04-08T08:15:09;102360.03;;;7.28;100.00
29315;BME280;16320;53.954;9.506;2023-04-08T08:18:15;102370.44;;;7.31;100.00
29315;BME280;16320;53.954;9.506;2023-04-08T08:21:19;102368.56;;;7.42;100.00
29315;BME280;16320;53.954;9.506;2023-04-08T08:24:24;102360.66;;;7.47;100.00
29315;BME280;16320;53.954;9.506;2023-04-08T08:27:29;102363.22;;;7.51;100.00
29315;BME280;16320;53.954;9.506;2023-04-08T08:30:33;102354.59;;;7.46;100.00
29315;BME280;16320;53.954;9.506;2023-04-08T08:33:38;102351.03;;;7.50;100.00
29315;BME280;16320;53.954;9.506;2023-04-08T08:36:43;102351.88;;;7.54;100.00
29315;BME280;16320;53.954;9.506;2023-04-08T08:39:47;102354.47;;;7.56;100.00
29315;BME280;16320;53.954;9.506;2023-04-08T08:42:51;102359.72;;;7.56;100.00
29315;BME280;16320;53.954;9.506;2023-04-08T08:45:55;102359.66;;;7.59;100.00
29315;BME280;16320;53.954;9.506;2023-04-08T08:49:00;102357.09;;;7.54;100.00
29315;BME280;16320;53.954;9.506;2023-04-08T08:52:06;102358.63;;;7.72;100.00
29315;BME280;16320;53.954;9.506;2023-04-08T08:55:11;102363.72;;;7.80;100.00
29315;BME280;16320;53.954;9.506;2023-04-08T08:58:36;102364.50;;;7.88;100.00
29315;BME280;16320;53.954;9.506;2023-04-08T09:01:42;102358.25;;;7.98;100.00
29315;BME280;16320;53.954;9.506;2023-04-08T09:05:00;102354.03;;;7.90;100.00
29315;BME280;16320;53.954;9.506;2023-04-08T09:08:32;102350.44;;;7.94;100.00
29315;BME280;16320;53.954;9.506;2023-04-08T09:11:43;102352.00;;;8.07;100.00
29315;BME280;16320;53.954;9.506;2023-04-08T09:14:48;102361.47;;;8.16;100.00
29315;BME280;16320;53.954;9.506;2023-04-08T09:17:53;102368.25;;;8.29;100.00
29315;BME280;16320;53.954;9.506;2023-04-08T09:21:02;102353.38;;;8.31;100.00
29315;BME280;16320;53.954;9.506;2023-04-08T09:24:08;102365.31;;;8.49;100.00
29315;BME280;16320;53.954;9.506;2023-04-08T09:27:14;102361.59;;;8.63;100.00
29315;BME280;16320;53.954;9.506;2023-04-08T09:30:23;102370.03;;;8.80;100.00
29315;BME280;16320;53.954;9.506;2023-04-08T09:33:32;102362.03;;;8.88;100.00
29315;BME280;16320;53.954;9.506;2023-04-08T09:36:36;102350.50;;;8.96;100.00
29315;BME280;16320;53.954;9.506;2023-04-08T09:39:41;102354.72;;;9.07;100.00
29315;BME280;16320;53.954;9.506;2023-04-08T09:42:47;102360.34;;;9.30;100.00
29315;BME280;16320;53.954;9.506;2023-04-08T09:45:54;102348.16;;;9.29;100.00
29315;BME280;16320;53.954;9.506;2023-04-08T09:52:20;102353.66;;;9.58;100.00
29315;BME280;16320;53.954;9.506;2023-04-08T09:55:29;102354.53;;;9.58;100.00
29315;BME280;16320;53.954;9.506;2023-04-08T09:59:12;102352.63;;;9.65;100.00
29315;BME280;16320;53.954;9.506;2023-04-08T10:02:29;102342.16;;;9.63;100.00
29315;BME280;16320;53.954;9.506;2023-04-08T10:05:37;102347.22;;;9.73;100.00
29315;BME280;16320;53.954;9.506;2023-04-08T10:08:44;102348.66;;;9.86;100.00
29315;BME280;16320;53.954;9.506;2023-04-08T10:11:49;102344.97;;;9.95;100.00
29315;BME280;16320;53.954;9.506;2023-04-08T10:15:24;102347.16;;;10.13;100.00
29315;BME280;16320;53.954;9.506;2023-04-08T10:18:30;102344.19;;;10.29;100.00
29315;BME280;16320;53.954;9.506;2023-04-08T10:21:38;102342.63;;;10.56;100.00
29315;BME280;16320;53.954;9.506;2023-04-08T10:28:23;102330.63;;;10.80;100.00
29315;BME280;16320;53.954;9.506;2023-04-08T10:31:28;102331.88;;;10.98;100.00
29315;BME280;16320;53.954;9.506;2023-04-08T10:34:32;102326.84;;;11.22;100.00
29315;BME280;16320;53.954;9.506;2023-04-08T10:37:37;102323.50;;;11.46;100.00
29315;BME280;16320;53.954;9.506;2023-04-08T10:40:42;102324.97;;;11.55;100.00
29315;BME280;16320;53.954;9.506;2023-04-08T10:43:48;102319.13;;;11.45;100.00
29315;BME280;16320;53.954;9.506;2023-04-08T10:46:54;102316.44;;;11.47;100.00
29315;BME280;16320;53.954;9.506;2023-04-08T10:49:59;102331.34;;;11.48;100.00
29315;BME280;16320;53.954;9.506;2023-04-08T10:53:04;102325.22;;;11.47;100.00
29315;BME280;16320;53.954;9.506;2023-04-08T10:56:13;102326.75;;;11.54;100.00
29315;BME280;16320;53.954;9.506;2023-04-08T10:59:30;102317.91;;;11.85;100.00
29315;BME280;16320;53.954;9.506;2023-04-08T11:02:39;102318.63;;;11.90;100.00
29315;BME280;16320;53.954;9.506;2023-04-08T11:05:44;102315.28;;;12.14;100.00
29315;BME280;16320;53.954;9.506;2023-04-08T11:08:48;102311.69;;;12.16;100.00
29315;BME280;16320;53.954;9.506;2023-04-08T11:11:52;102321.31;;;12.17;100.00
29315;BME280;16320;53.954;9.506;2023-04-08T11:14:57;102321.84;;;12.00;100.00
29315;BME280;16320;53.954;9.506;2023-04-08T11:18:05;102322.19;;;11.89;100.00
29315;BME280;16320;53.954;9.506;2023-04-08T11:21:10;102308.09;;;11.90;100.00
29315;BME280;16320;53.954;9.506;2023-04-08T11:24:14;102316.59;;;12.00;100.00
29315;BME280;16320;53.954;9.506;2023-04-08T11:27:20;102316.19;;;12.13;100.00
29315;BME280;16320;53.954;9.506;2023-04-08T11:30:29;102325.34;;;12.27;100.00
29315;BME280;16320;53.954;9.506;2023-04-08T11:33:34;102322.97;;;12.47;100.00
29315;BME280;16320;53.954;9.506;2023-04-08T11:36:39;102318.75;;;12.41;100.00
29315;BME280;16320;53.954;9.506;2023-04-08T11:39:46;102315.28;;;12.40;100.00
29315;BME280;16320;53.954;9.506;2023-04-08T11:42:52;102306.91;;;12.27;100.00
29315;BME280;16320;53.954;9.506;2023-04-08T11:45:56;102324.81;;;11.89;100.00
29315;BME280;16320;53.954;9.506;2023-04-08T11:49:07;102326.38;;;11.67;100.00
29315;BME280;16320;53.954;9.506;2023-04-08T11:52:12;102335.09;;;11.69;100.00
29315;BME280;16320;53.954;9.506;2023-04-08T11:55:25;102327.78;;;11.79;100.00
29315;BME280;16320;53.954;9.506;2023-04-08T11:58:32;102332.91;;;11.83;100.00
29315;BME280;16320;53.954;9.506;2023-04-08T12:01:36;102316.91;;;11.89;100.00
29315;BME280;16320;53.954;9.506;2023-04-08T12:04:41;102312.28;;;12.24;100.00
29315;BME280;16320;53.954;9.506;2023-04-08T12:07:45;102302.31;;;12.59;100.00
29315;BME280;16320;53.954;9.506;2023-04-08T12:10:51;102299.13;;;12.75;100.00
29315;BME280;16320;53.954;9.506;2023-04-08T12:13:56;102298.75;;;12.60;100.00
29315;BME280;16320;53.954;9.506;2023-04-08T12:17:01;102308.66;;;12.54;100.00
29315;BME280;16320;53.954;9.506;2023-04-08T12:20:06;102312.09;;;12.56;100.00
29315;BME280;16320;53.954;9.506;2023-04-08T12:23:10;102320.09;;;12.54;100.00
29315;BME280;16320;53.954;9.506;2023-04-08T12:26:15;102311.88;;;12.62;100.00
29315;BME280;16320;53.954;9.506;2023-04-08T12:29:19;102310.63;;;12.74;100.00
29315;BME280;16320;53.954;9.506;2023-04-08T12:32:24;102309.84;;;12.70;100.00
29315;BME280;16320;53.954;9.506;2023-04-08T12:35:29;102314.66;;;13.08;100.00
29315;BME280;16320;53.954;9.506;2023-04-08T12:38:34;102308.41;;;13.35;100.00
29315;BME280;16320;53.954;9.506;2023-04-08T12:41:38;102303.00;;;13.61;100.00
29315;BME280;16320;53.954;9.506;2023-04-08T12:44:42;102297.22;;;13.51;100.00
29315;BME280;16320;53.954;9.506;2023-04-08T12:47:47;102293.84;;;13.69;100.00
29315;BME280;16320;53.954;9.506;2023-04-08T12:50:51;102307.84;;;13.26;100.00
29315;BME280;16320;53.954;9.506;2023-04-08T12:53:56;102310.38;;;12.80;100.00
29315;BME280;16320;53.954;9.506;2023-04-08T12:57:00;102311.31;;;13.03;100.00
29315;BME280;16320;53.954;9.506;2023-04-08T13:00:07;102324.97;;;13.14;100.00
29315;BME280;16320;53.954;9.506;2023-04-08T13:03:12;102308.09;;;12.71;100.00
29315;BME280;16320;53.954;9.506;2023-04-08T13:06:19;102328.75;;;12.58;100.00
29315;BME280;16320;53.954;9.506;2023-04-08T13:09:23;102329.00;;;12.50;100.00
29315;BME280;16320;53.954;9.506;2023-04-08T13:12:28;102324.56;;;12.25;100.00
29315;BME280;16320;53.954;9.506;2023-04-08T13:15:32;102339.59;;;12.22;100.00
29315;BME280;16320;53.954;9.506;2023-04-08T13:18:36;102341.63;;;12.14;100.00
29315;BME280;16320;53.954;9.506;2023-04-08T13:21:41;102343.78;;;12.01;100.00
29315;BME280;16320;53.954;9.506;2023-04-08T13:24:48;102340.75;;;11.85;100.00
29315;BME280;16320;53.954;9.506;2023-04-08T13:27:52;102337.94;;;11.61;100.00
29315;BME280;16320;53.954;9.506;2023-04-08T13:30:56;102345.50;;;11.44;100.00
29315;BME280;16320;53.954;9.506;2023-04-08T13:34:01;102366.25;;;11.23;100.00
29315;BME280;16320;53.954;9.506;2023-04-08T13:37:05;102363.03;;;11.13;100.00
29315;BME280;16320;53.954;9.506;2023-04-08T13:40:09;102369.06;;;11.17;100.00
29315;BME280;16320;53.954;9.506;2023-04-08T13:43:15;102369.19;;;11.12;100.00
29315;BME280;16320;53.954;9.506;2023-04-08T13:46:20;102375.16;;;11.17;100.00
29315;BME280;16320;53.954;9.506;2023-04-08T13:49:24;102363.44;;;10.98;100.00
29315;BME280;16320;53.954;9.506;2023-04-08T13:52:29;102372.28;;;10.95;100.00
29315;BME280;16320;53.954;9.506;2023-04-08T13:55:33;102376.91;;;10.86;100.00
29315;BME280;16320;53.954;9.506;2023-04-08T13:58:37;102369.41;;;10.70;100.00
29315;BME280;16320;53.954;9.506;2023-04-08T14:01:41;102375.78;;;10.61;100.00
29315;BME280;16320;53.954;9.506;2023-04-08T14:04:46;102375.69;;;10.66;100.00
29315;BME280;16320;53.954;9.506;2023-04-08T14:07:51;102377.97;;;10.78;100.00
29315;BME280;16320;53.954;9.506;2023-04-08T14:10:55;102369.88;;;10.86;100.00
29315;BME280;16320;53.954;9.506;2023-04-08T14:14:02;102374.38;;;10.83;100.00
29315;BME280;16320;53.954;9.506;2023-04-08T14:17:07;102377.84;;;10.83;100.00
29315;BME280;16320;53.954;9.506;2023-04-08T14:20:11;102386.97;;;10.70;100.00
29315;BME280;16320;53.954;9.506;2023-04-08T14:23:16;102391.56;;;10.61;100.00
29315;BME280;16320;53.954;9.506;2023-04-08T14:26:20;102382.56;;;10.70;100.00
29315;BME280;16320;53.954;9.506;2023-04-08T14:29:25;102385.34;;;10.64;100.00
29315;BME280;16320;53.954;9.506;2023-04-08T14:32:30;102398.38;;;10.69;100.00
29315;BME280;16320;53.954;9.506;2023-04-08T14:35:35;102385.44;;;10.61;100.00
29315;BME280;16320;53.954;9.506;2023-04-08T14:38:40;102374.19;;;10.54;100.00
29315;BME280;16320;53.954;9.506;2023-04-08T14:41:45;102385.09;;;10.39;100.00
29315;BME280;16320;53.954;9.506;2023-04-08T14:44:50;102388.72;;;10.33;100.00
29315;BME280;16320;53.954;9.506;2023-04-08T14:47:55;102385.16;;;10.36;100.00
29315;BME280;16320;53.954;9.506;2023-04-08T14:50:59;102380.00;;;10.31;100.00
29315;BME280;16320;53.954;9.506;2023-04-08T14:54:04;102391.34;;;10.33;100.00
29315;BME280;16320;53.954;9.506;2023-04-08T14:57:09;102392.13;;;10.38;100.00
29315;BME280;16320;53.954;9.506;2023-04-08T15:00:13;102392.88;;;10.43;100.00
29315;BME280;16320;53.954;9.506;2023-04-08T15:03:18;102383.66;;;10.25;100.00
29315;BME280;16320;53.954;9.506;2023-04-08T15:06:23;102387.28;;;10.18;100.00
29315;BME280;16320;53.954;9.506;2023-04-08T15:09:27;102378.75;;;10.10;100.00
29315;BME280;16320;53.954;9.506;2023-04-08T15:12:32;102387.56;;;10.07;100.00
29315;BME280;16320;53.954;9.506;2023-04-08T15:15:38;102393.50;;;10.16;100.00
29315;BME280;16320;53.954;9.506;2023-04-08T15:18:42;102384.91;;;10.09;100.00
29315;BME280;16320;53.954;9.506;2023-04-08T15:21:46;102380.66;;;10.03;100.00
29315;BME280;16320;53.954;9.506;2023-04-08T15:24:51;102395.22;;;10.17;100.00
29315;BME280;16320;53.954;9.506;2023-04-08T15:27:55;102385.53;;;10.20;100.00
29315;BME280;16320;53.954;9.506;2023-04-08T15:31:00;102386.56;;;10.12;100.00
29315;BME280;16320;53.954;9.506;2023-04-08T15:34:05;102391.06;;;10.06;100.00
29315;BME280;16320;53.954;9.506;2023-04-08T15:37:09;102394.53;;;10.08;100.00
29315;BME280;16320;53.954;9.506;2023-04-08T15:40:14;102389.38;;;10.04;100.00
29315;BME280;16320;53.954;9.506;2023-04-08T15:43:19;102392.78;;;10.09;100.00
29315;BME280;16320;53.954;9.506;2023-04-08T15:46:23;102389.97;;;10.17;100.00
29315;BME280;16320;53.954;9.506;2023-04-08T15:49:27;102395.06;;;10.23;100.00
29315;BME280;16320;53.954;9.506;2023-04-08T15:52:31;102389.97;;;10.17;100.00
29315;BME280;16320;53.954;9.506;2023-04-08T15:55:39;102390.00;;;10.15;100.00
29315;BME280;16320;53.954;9.506;2023-04-08T15:58:44;102384.78;;;10.14;100.00
29315;BME280;16320;53.954;9.506;2023-04-08T16:01:49;102383.88;;;10.15;100.00
29315;BME280;16320;53.954;9.506;2023-04-08T16:04:54;102393.38;;;10.22;100.00
29315;BME280;16320;53.954;9.506;2023-04-08T16:07:58;102386.16;;;10.30;100.00
29315;BME280;16320;53.954;9.506;2023-04-08T16:11:05;102378.91;;;10.41;100.00
29315;BME280;16320;53.954;9.506;2023-04-08T16:14:11;102387.41;;;10.53;100.00
29315;BME280;16320;53.954;9.506;2023-04-08T16:17:15;102385.00;;;10.78;100.00